^^
Saratoga-Weather Station Historical Data
Daily Summary for May 07, 2021 Units:  Both    English   Metric
Daily Weekly Monthly Yearly Custom
  High: Low: Average:
Temperature: 56.7 °F /  13.7 °C 39.9 °F /  4.4 °C 48.2 °F /  9 °C
Dew Point: 42.4 °F /  5.8 °C 33.6 °F /  0.9 °C 37.9 °F /  3.3 °C
Humidity: 93% 44% 70%
Wind Speed: 13mph /  20.9km/h - 3.9mph /  6.2km/h
Wind Gust: 18mph /  29km/h - -
Wind- - West
Pressure: 30.1 in /  1019.0 hPa 29.8 in /  1007.8 hPa -
Precipitation: 0 in /  0.0 mm    
Historical Graphs
 
 
Tabular Data for May 07, 2021
Time Temperature Dew Point Pressure Wind Wind Speed Wind Gust Humidity Rainfall Rate (Hourly) solar
00:03 43.9 °F /  6.6 °C 41.9 °F /  5.5 °C 29.8in /  1007.8hPa WNW 6.9mph /  11.1km/h 7mph /  11.3km/h 93% 0in /  0.0mm 0 W/m2
00:08 43.9 °F /  6.6 °C 41.9 °F /  5.5 °C 29.8in /  1007.8hPa West 6mph /  9.7km/h 7mph /  11.3km/h 93% 0in /  0.0mm 0 W/m2
00:13 43.9 °F /  6.6 °C 41.9 °F /  5.5 °C 29.8in /  1007.8hPa West 2.9mph /  4.7km/h 6mph /  9.7km/h 93% 0in /  0.0mm 0 W/m2
00:18 43.9 °F /  6.6 °C 41.9 °F /  5.5 °C 29.8in /  1007.8hPa WNW 2mph /  3.2km/h 4mph /  6.4km/h 93% 0in /  0.0mm 0 W/m2
00:23 43.7 °F /  6.5 °C 41.7 °F /  5.4 °C 29.8in /  1008.1hPa West 2mph /  3.2km/h 4mph /  6.4km/h 93% 0in /  0.0mm 0 W/m2
00:28 43.7 °F /  6.5 °C 41.7 °F /  5.4 °C 29.8in /  1007.8hPa WSW 2mph /  3.2km/h 5mph /  8km/h 93% 0in /  0.0mm 0 W/m2
00:33 43.7 °F /  6.5 °C 41.7 °F /  5.4 °C 29.8in /  1007.8hPa WNW 2mph /  3.2km/h 6mph /  9.7km/h 93% 0in /  0.0mm 0 W/m2
00:38 43.7 °F /  6.5 °C 41.7 °F /  5.4 °C 29.8in /  1007.8hPa WSW 2.9mph /  4.7km/h 6mph /  9.7km/h 93% 0in /  0.0mm 0 W/m2
00:43 43.7 °F /  6.5 °C 41.7 °F /  5.4 °C 29.8in /  1007.8hPa West 2mph /  3.2km/h 5mph /  8km/h 93% 0in /  0.0mm 0 W/m2
00:48 43.7 °F /  6.5 °C 41.7 °F /  5.4 °C 29.8in /  1008.1hPa West 2.9mph /  4.7km/h 6mph /  9.7km/h 93% 0in /  0.0mm 0 W/m2
00:53 43.9 °F /  6.6 °C 41.9 °F /  5.5 °C 29.8in /  1008.1hPa WNW 0.9mph /  1.4km/h 2mph /  3.2km/h 93% 0in /  0.0mm 0 W/m2
00:58 43.7 °F /  6.5 °C 41.7 °F /  5.4 °C 29.8in /  1008.5hPa WNW 2.9mph /  4.7km/h 4mph /  6.4km/h 93% 0in /  0.0mm 0 W/m2
01:03 43.7 °F /  6.5 °C 41.7 °F /  5.4 °C 29.8in /  1008.5hPa WNW 2mph /  3.2km/h 3mph /  4.8km/h 93% 0in /  0.0mm 0 W/m2
01:08 43.7 °F /  6.5 °C 41.7 °F /  5.4 °C 29.8in /  1008.5hPa WSW 2.9mph /  4.7km/h 3mph /  4.8km/h 93% 0in /  0.0mm 0 W/m2
01:13 43.7 °F /  6.5 °C 41.7 °F /  5.4 °C 29.8in /  1008.5hPa West 4mph /  6.4km/h 6mph /  9.7km/h 93% 0in /  0.0mm 0 W/m2
01:18 43.7 °F /  6.5 °C 41.7 °F /  5.4 °C 29.8in /  1008.5hPa WSW 0.9mph /  1.4km/h 4mph /  6.4km/h 93% 0in /  0.0mm 0 W/m2
01:23 43.7 °F /  6.5 °C 41.7 °F /  5.4 °C 29.8in /  1008.5hPa West 2mph /  3.2km/h 5mph /  8km/h 93% 0in /  0.0mm 0 W/m2
01:28 43.5 °F /  6.4 °C 41.7 °F /  5.4 °C 29.8in /  1008.5hPa West 2.9mph /  4.7km/h 3mph /  4.8km/h 93% 0in /  0.0mm 0 W/m2
01:33 43.5 °F /  6.4 °C 41.7 °F /  5.4 °C 29.8in /  1008.5hPa WNW 2mph /  3.2km/h 4mph /  6.4km/h 93% 0in /  0.0mm 0 W/m2
01:38 43.5 °F /  6.4 °C 41.7 °F /  5.4 °C 29.8in /  1008.5hPa Calm   2mph /  3.2km/h 93% 0in /  0.0mm 0 W/m2
01:43 43.5 °F /  6.4 °C 41.7 °F /  5.4 °C 29.8in /  1008.5hPa West 2mph /  3.2km/h 4mph /  6.4km/h 93% 0in /  0.0mm 0 W/m2
01:48 43.5 °F /  6.4 °C 41.7 °F /  5.4 °C 29.8in /  1008.5hPa WNW 0.9mph /  1.4km/h 4mph /  6.4km/h 93% 0in /  0.0mm 0 W/m2
01:53 43.5 °F /  6.4 °C 41.7 °F /  5.4 °C 29.8in /  1008.5hPa West 2mph /  3.2km/h 4mph /  6.4km/h 93% 0in /  0.0mm 0 W/m2
01:58 43.5 °F /  6.4 °C 41.7 °F /  5.4 °C 29.8in /  1008.5hPa WNW 4mph /  6.4km/h 7mph /  11.3km/h 93% 0in /  0.0mm 0 W/m2
02:03 43.5 °F /  6.4 °C 41.7 °F /  5.4 °C 29.8in /  1008.5hPa WSW 2mph /  3.2km/h 7mph /  11.3km/h 93% 0in /  0.0mm 0 W/m2
02:08 43.5 °F /  6.4 °C 41.7 °F /  5.4 °C 29.8in /  1008.5hPa West 2.9mph /  4.7km/h 5mph /  8km/h 93% 0in /  0.0mm 0 W/m2
02:13 43.5 °F /  6.4 °C 41.7 °F /  5.4 °C 29.8in /  1008.5hPa WNW 2.9mph /  4.7km/h 7mph /  11.3km/h 93% 0in /  0.0mm 0 W/m2
02:18 43.3 °F /  6.3 °C 41.5 °F /  5.3 °C 29.8in /  1008.5hPa SW 2.9mph /  4.7km/h 4mph /  6.4km/h 93% 0in /  0.0mm 0 W/m2
02:23 43.3 °F /  6.3 °C 41.5 °F /  5.3 °C 29.8in /  1008.5hPa WSW 4mph /  6.4km/h 5mph /  8km/h 93% 0in /  0.0mm 0 W/m2
02:28 43.3 °F /  6.3 °C 41.5 °F /  5.3 °C 29.8in /  1008.5hPa West 2.9mph /  4.7km/h 6mph /  9.7km/h 93% 0in /  0.0mm 0 W/m2
02:33 43.3 °F /  6.3 °C 41.5 °F /  5.3 °C 29.8in /  1008.5hPa WNW 2.9mph /  4.7km/h 6mph /  9.7km/h 93% 0in /  0.0mm 0 W/m2
02:38 43.5 °F /  6.4 °C 41.7 °F /  5.4 °C 29.8in /  1008.5hPa West 6mph /  9.7km/h 6mph /  9.7km/h 93% 0in /  0.0mm 0 W/m2
02:43 43.5 °F /  6.4 °C 41.7 °F /  5.4 °C 29.8in /  1008.5hPa West 0.9mph /  1.4km/h 6mph /  9.7km/h 93% 0in /  0.0mm 0 W/m2
02:48 43.5 °F /  6.4 °C 41.7 °F /  5.4 °C 29.8in /  1008.5hPa West 2mph /  3.2km/h 3mph /  4.8km/h 93% 0in /  0.0mm 0 W/m2
02:53 43.5 °F /  6.4 °C 41.7 °F /  5.4 °C 29.8in /  1008.5hPa WSW 2.9mph /  4.7km/h 10mph /  16.1km/h 93% 0in /  0.0mm 0 W/m2
02:58 43.5 °F /  6.4 °C 41.7 °F /  5.4 °C 29.8in /  1008.5hPa WSW 2mph /  3.2km/h 4mph /  6.4km/h 93% 0in /  0.0mm 0 W/m2
03:03 43.5 °F /  6.4 °C 41.7 °F /  5.4 °C 29.8in /  1008.5hPa WNW 2.9mph /  4.7km/h 10mph /  16.1km/h 93% 0in /  0.0mm 0 W/m2
03:08 43.5 °F /  6.4 °C 41.7 °F /  5.4 °C 29.8in /  1008.5hPa SW 6.9mph /  11.1km/h 9mph /  14.5km/h 93% 0in /  0.0mm 0 W/m2
05:13 41.4 °F /  5.2 °C 38.3 °F /  3.5 °C 29.8in /  1009.8hPa West 2.9mph /  4.7km/h 6mph /  9.7km/h 89% 0in /  0.0mm 0 W/m2
05:18 41.4 °F /  5.2 °C 38.3 °F /  3.5 °C 29.8in /  1009.8hPa WSW 4mph /  6.4km/h 7mph /  11.3km/h 89% 0in /  0.0mm 0 W/m2
05:23 41.2 °F /  5.1 °C 38.1 °F /  3.4 °C 29.8in /  1010.2hPa West 2mph /  3.2km/h 3mph /  4.8km/h 89% 0in /  0.0mm 0 W/m2
05:28 41 °F /  5 °C 38.3 °F /  3.5 °C 29.8in /  1010.2hPa West 2mph /  3.2km/h 7mph /  11.3km/h 90% 0in /  0.0mm 0 W/m2
05:33 40.8 °F /  4.9 °C 38.1 °F /  3.4 °C 29.8in /  1010.2hPa WSW 2mph /  3.2km/h 4mph /  6.4km/h 90% 0in /  0.0mm 0 W/m2
05:38 40.8 °F /  4.9 °C 38.1 °F /  3.4 °C 29.8in /  1010.2hPa West 2.9mph /  4.7km/h 4mph /  6.4km/h 90% 0in /  0.0mm 0 W/m2
05:43 40.6 °F /  4.8 °C 37.9 °F /  3.3 °C 29.8in /  1010.2hPa West 4mph /  6.4km/h 4mph /  6.4km/h 90% 0in /  0.0mm 0 W/m2
05:48 40.5 °F /  4.7 °C 37.8 °F /  3.2 °C 29.8in /  1010.2hPa WNW 2.9mph /  4.7km/h 5mph /  8km/h 90% 0in /  0.0mm 0 W/m2
05:53 40.5 °F /  4.7 °C 37.8 °F /  3.2 °C 29.8in /  1010.5hPa West 2mph /  3.2km/h 4mph /  6.4km/h 90% 0in /  0.0mm 0 W/m2
05:58 40.3 °F /  4.6 °C 37.6 °F /  3.1 °C 29.8in /  1010.5hPa WNW 2.9mph /  4.7km/h 4mph /  6.4km/h 90% 0in /  0.0mm 0 W/m2
06:03 40.3 °F /  4.6 °C 37.6 °F /  3.1 °C 29.8in /  1010.5hPa West 2.9mph /  4.7km/h 3mph /  4.8km/h 90% 0in /  0.0mm 0 W/m2
06:08 40.3 °F /  4.6 °C 37.6 °F /  3.1 °C 29.8in /  1010.5hPa West 0.9mph /  1.4km/h 5mph /  8km/h 90% 0in /  0.0mm 5 W/m2
06:13 40.3 °F /  4.6 °C 37.9 °F /  3.3 °C 29.8in /  1010.5hPa West 0.9mph /  1.4km/h 4mph /  6.4km/h 91% 0in /  0.0mm 7 W/m2
06:18 40.1 °F /  4.5 °C 37.8 °F /  3.2 °C 29.9in /  1010.8hPa West 2.9mph /  4.7km/h 3mph /  4.8km/h 91% 0in /  0.0mm 9 W/m2
06:23 40.1 °F /  4.5 °C 37.8 °F /  3.2 °C 29.9in /  1010.8hPa West 2.9mph /  4.7km/h 4mph /  6.4km/h 91% 0in /  0.0mm 11 W/m2
06:28 40.1 °F /  4.5 °C 37.8 °F /  3.2 °C 29.9in /  1010.8hPa WSW 2.9mph /  4.7km/h 4mph /  6.4km/h 91% 0in /  0.0mm 12 W/m2
06:33 39.9 °F /  4.4 °C 37.6 °F /  3.1 °C 29.9in /  1010.8hPa WNW 4mph /  6.4km/h 6mph /  9.7km/h 91% 0in /  0.0mm 14 W/m2
06:38 39.9 °F /  4.4 °C 37.6 °F /  3.1 °C 29.9in /  1010.8hPa West 4mph /  6.4km/h 6mph /  9.7km/h 91% 0in /  0.0mm 18 W/m2
06:43 39.9 °F /  4.4 °C 37.8 °F /  3.2 °C 29.9in /  1010.8hPa West 2.9mph /  4.7km/h 6mph /  9.7km/h 92% 0in /  0.0mm 21 W/m2
06:48 39.9 °F /  4.4 °C 37.8 °F /  3.2 °C 29.9in /  1011.2hPa WSW 8.1mph /  13km/h 8mph /  12.9km/h 92% 0in /  0.0mm 25 W/m2
06:53 39.9 °F /  4.4 °C 37.8 °F /  3.2 °C 29.9in /  1011.2hPa West 2.9mph /  4.7km/h 4mph /  6.4km/h 92% 0in /  0.0mm 26 W/m2
06:58 40.1 °F /  4.5 °C 37.9 °F /  3.3 °C 29.9in /  1011.2hPa West 6mph /  9.7km/h 7mph /  11.3km/h 92% 0in /  0.0mm 28 W/m2
07:03 40.3 °F /  4.6 °C 38.1 °F /  3.4 °C 29.9in /  1011.2hPa West 4mph /  6.4km/h 7mph /  11.3km/h 92% 0in /  0.0mm 30 W/m2
07:08 40.3 °F /  4.6 °C 38.1 °F /  3.4 °C 29.9in /  1011.5hPa NW 4.9mph /  7.9km/h 9mph /  14.5km/h 92% 0in /  0.0mm 35 W/m2
07:13 40.5 °F /  4.7 °C 38.3 °F /  3.5 °C 29.9in /  1011.5hPa WNW 4mph /  6.4km/h 13mph /  20.9km/h 92% 0in /  0.0mm 88 W/m2
07:18 40.3 °F /  4.6 °C 38.1 °F /  3.4 °C 29.9in /  1011.9hPa WNW 4.9mph /  7.9km/h 12mph /  19.3km/h 92% 0in /  0.0mm 90 W/m2
07:23 40.3 °F /  4.6 °C 38.1 °F /  3.4 °C 29.9in /  1011.9hPa WSW 6mph /  9.7km/h 10mph /  16.1km/h 92% 0in /  0.0mm 79 W/m2
07:28 40.3 °F /  4.6 °C 38.1 °F /  3.4 °C 29.9in /  1011.9hPa WNW 4mph /  6.4km/h 8mph /  12.9km/h 92% 0in /  0.0mm 77 W/m2
07:33 40.1 °F /  4.5 °C 37.9 °F /  3.3 °C 29.9in /  1011.9hPa WNW 2.9mph /  4.7km/h 9mph /  14.5km/h 92% 0in /  0.0mm 79 W/m2
07:38 40.3 °F /  4.6 °C 38.1 °F /  3.4 °C 29.9in /  1012.2hPa WNW 2mph /  3.2km/h 8mph /  12.9km/h 92% 0in /  0.0mm 62 W/m2
07:43 40.3 °F /  4.6 °C 38.1 °F /  3.4 °C 29.9in /  1012.2hPa WNW 2.9mph /  4.7km/h 7mph /  11.3km/h 92% 0in /  0.0mm 56 W/m2
07:48 40.5 °F /  4.7 °C 38.1 °F /  3.4 °C 29.9in /  1012.2hPa West 4mph /  6.4km/h 10mph /  16.1km/h 91% 0in /  0.0mm 49 W/m2
07:53 40.8 °F /  4.9 °C 38.5 °F /  3.6 °C 29.9in /  1012.5hPa West 6.9mph /  11.1km/h 9mph /  14.5km/h 91% 0in /  0.0mm 53 W/m2
07:59 41.2 °F /  5.1 °C 38.8 °F /  3.8 °C 29.9in /  1012.5hPa WSW 2.9mph /  4.7km/h 7mph /  11.3km/h 91% 0in /  0.0mm 53 W/m2
08:04 41.4 °F /  5.2 °C 38.7 °F /  3.7 °C 29.9in /  1012.2hPa NW 4.9mph /  7.9km/h 9mph /  14.5km/h 90% 0in /  0.0mm 53 W/m2
08:09 41.7 °F /  5.4 °C 39 °F /  3.9 °C 29.9in /  1012.5hPa WNW 6.9mph /  11.1km/h 7mph /  11.3km/h 90% 0in /  0.0mm 53 W/m2
08:14 42.1 °F /  5.6 °C 39.4 °F /  4.1 °C 29.9in /  1012.5hPa WNW 2.9mph /  4.7km/h 3mph /  4.8km/h 90% 0in /  0.0mm 54 W/m2
08:19 42.3 °F /  5.7 °C 39.2 °F /  4 °C 29.9in /  1012.5hPa West 6mph /  9.7km/h 6mph /  9.7km/h 89% 0in /  0.0mm 58 W/m2
08:24 42.3 °F /  5.7 °C 39 °F /  3.9 °C 29.9in /  1012.5hPa WNW 2.9mph /  4.7km/h 8mph /  12.9km/h 88% 0in /  0.0mm 54 W/m2
08:29 42.4 °F /  5.8 °C 38.8 °F /  3.8 °C 29.9in /  1012.9hPa NW 4mph /  6.4km/h 7mph /  11.3km/h 87% 0in /  0.0mm 58 W/m2
08:34 42.6 °F /  5.9 °C 39 °F /  3.9 °C 29.9in /  1012.9hPa WNW 4mph /  6.4km/h 6mph /  9.7km/h 87% 0in /  0.0mm 60 W/m2
08:39 43.2 °F /  6.2 °C 39.6 °F /  4.2 °C 29.9in /  1012.9hPa WSW 2.9mph /  4.7km/h 5mph /  8km/h 87% 0in /  0.0mm 98 W/m2
08:44 43.5 °F /  6.4 °C 39.9 °F /  4.4 °C 29.9in /  1012.9hPa NW 0.9mph /  1.4km/h 4mph /  6.4km/h 87% 0in /  0.0mm 251 W/m2
08:49 44.1 °F /  6.7 °C 40.1 °F /  4.5 °C 29.9in /  1012.9hPa West 6.9mph /  11.1km/h 7mph /  11.3km/h 86% 0in /  0.0mm 350 W/m2
08:54 44.1 °F /  6.7 °C 39.9 °F /  4.4 °C 29.9in /  1012.9hPa West 4mph /  6.4km/h 8mph /  12.9km/h 85% 0in /  0.0mm 364 W/m2
08:59 44.2 °F /  6.8 °C 40.1 °F /  4.5 °C 29.9in /  1012.9hPa West 6.9mph /  11.1km/h 7mph /  11.3km/h 85% 0in /  0.0mm 381 W/m2
09:04 44.4 °F /  6.9 °C 39.9 °F /  4.4 °C 29.9in /  1012.9hPa NW 4mph /  6.4km/h 6mph /  9.7km/h 84% 0in /  0.0mm 396 W/m2
09:09 44.8 °F /  7.1 °C 40.3 °F /  4.6 °C 29.9in /  1012.9hPa NW 4.9mph /  7.9km/h 10mph /  16.1km/h 84% 0in /  0.0mm 406 W/m2
09:14 44.8 °F /  7.1 °C 39.9 °F /  4.4 °C 29.9in /  1012.9hPa West 6mph /  9.7km/h 11mph /  17.7km/h 83% 0in /  0.0mm 427 W/m2
09:19 45.1 °F /  7.3 °C 40.3 °F /  4.6 °C 29.9in /  1012.9hPa WNW 6.9mph /  11.1km/h 9mph /  14.5km/h 83% 0in /  0.0mm 443 W/m2
09:24 45.3 °F /  7.4 °C 40.1 °F /  4.5 °C 29.9in /  1012.9hPa WSW 4mph /  6.4km/h 12mph /  19.3km/h 82% 0in /  0.0mm 448 W/m2
09:29 45.5 °F /  7.5 °C 40.3 °F /  4.6 °C 29.9in /  1013.2hPa WSW 4.9mph /  7.9km/h 8mph /  12.9km/h 82% 0in /  0.0mm 473 W/m2
09:34 45.9 °F /  7.7 °C 40.3 °F /  4.6 °C 29.9in /  1013.2hPa WNW 2mph /  3.2km/h 10mph /  16.1km/h 81% 0in /  0.0mm 464 W/m2
09:39 46.4 °F /  8 °C 41.2 °F /  5.1 °C 29.9in /  1013.2hPa WNW 4mph /  6.4km/h 8mph /  12.9km/h 82% 0in /  0.0mm 88 W/m2
09:44 46.2 °F /  7.9 °C 40.5 °F /  4.7 °C 29.9in /  1013.2hPa West 0.9mph /  1.4km/h 11mph /  17.7km/h 80% 0in /  0.0mm 121 W/m2
09:49 46.8 °F /  8.2 °C 41 °F /  5 °C 29.9in /  1013.2hPa WNW 10.1mph /  16.3km/h 12mph /  19.3km/h 80% 0in /  0.0mm 527 W/m2
09:54 46.8 °F /  8.2 °C 41 °F /  5 °C 29.9in /  1013.2hPa WSW 6.9mph /  11.1km/h 10mph /  16.1km/h 80% 0in /  0.0mm 575 W/m2
09:59 46.9 °F /  8.3 °C 41.2 °F /  5.1 °C 29.9in /  1013.5hPa WNW 4.9mph /  7.9km/h 7mph /  11.3km/h 80% 0in /  0.0mm 617 W/m2
10:04 47.1 °F /  8.4 °C 41 °F /  5 °C 29.9in /  1013.5hPa West 4mph /  6.4km/h 9mph /  14.5km/h 79% 0in /  0.0mm 680 W/m2
10:09 47.5 °F /  8.6 °C 41.5 °F /  5.3 °C 29.9in /  1013.5hPa West 8.9mph /  14.3km/h 9mph /  14.5km/h 80% 0in /  0.0mm 640 W/m2
10:14 47.8 °F /  8.8 °C 41.9 °F /  5.5 °C 29.9in /  1013.5hPa WNW 4mph /  6.4km/h 7mph /  11.3km/h 80% 0in /  0.0mm 631 W/m2
10:19 48.4 °F /  9.1 °C 42.4 °F /  5.8 °C 29.9in /  1013.5hPa WNW 4.9mph /  7.9km/h 7mph /  11.3km/h 80% 0in /  0.0mm 696 W/m2
10:24 48.4 °F /  9.1 °C 41.2 °F /  5.1 °C 29.9in /  1013.9hPa West 8.1mph /  13km/h 14mph /  22.5km/h 76% 0in /  0.0mm 671 W/m2
10:29 48 °F /  8.9 °C 40.5 °F /  4.7 °C 29.9in /  1013.9hPa West 8.1mph /  13km/h 13mph /  20.9km/h 75% 0in /  0.0mm 671 W/m2
10:34 48 °F /  8.9 °C 40.5 °F /  4.7 °C 30in /  1014.2hPa West 6mph /  9.7km/h 11mph /  17.7km/h 75% 0in /  0.0mm 671 W/m2
10:39 48.4 °F /  9.1 °C 40.8 °F /  4.9 °C 30in /  1014.2hPa WNW 6.9mph /  11.1km/h 15mph /  24.1km/h 75% 0in /  0.0mm 207 W/m2
10:44 48 °F /  8.9 °C 40.8 °F /  4.9 °C 30in /  1014.2hPa West 8.9mph /  14.3km/h 9mph /  14.5km/h 76% 0in /  0.0mm 127 W/m2
10:49 47.8 °F /  8.8 °C 40.3 °F /  4.6 °C 30in /  1014.2hPa West 6.9mph /  11.1km/h 13mph /  20.9km/h 75% 0in /  0.0mm 737 W/m2
10:54 48 °F /  8.9 °C 39.7 °F /  4.3 °C 30in /  1014.6hPa WNW 11mph /  17.7km/h 17mph /  27.4km/h 73% 0in /  0.0mm 724 W/m2
10:59 48.4 °F /  9.1 °C 40.1 °F /  4.5 °C 30in /  1014.6hPa WNW 13mph /  20.9km/h 18mph /  29km/h 73% 0in /  0.0mm 851 W/m2
11:04 48.7 °F /  9.3 °C 39.7 °F /  4.3 °C 30in /  1014.6hPa WSW 8.1mph /  13km/h 13mph /  20.9km/h 71% 0in /  0.0mm 874 W/m2
11:09 48.6 °F /  9.2 °C 38.5 °F /  3.6 °C 30in /  1014.6hPa WSW 12.1mph /  19.5km/h 18mph /  29km/h 68% 0in /  0.0mm 139 W/m2
11:14 48 °F /  8.9 °C 39 °F /  3.9 °C 30in /  1014.6hPa West 6.9mph /  11.1km/h 14mph /  22.5km/h 71% 0in /  0.0mm 840 W/m2
11:19 48.4 °F /  9.1 °C 39 °F /  3.9 °C 30in /  1014.9hPa West 8.1mph /  13km/h 16mph /  25.7km/h 70% 0in /  0.0mm 796 W/m2
11:24 48.6 °F /  9.2 °C 39.2 °F /  4 °C 30in /  1014.9hPa WSW 10.1mph /  16.3km/h 12mph /  19.3km/h 70% 0in /  0.0mm 865 W/m2
11:29 49.1 °F /  9.5 °C 39 °F /  3.9 °C 30in /  1014.9hPa WNW 6.9mph /  11.1km/h 14mph /  22.5km/h 68% 0in /  0.0mm 969 W/m2
11:34 48.7 °F /  9.3 °C 38.7 °F /  3.7 °C 30in /  1015.2hPa West 8.1mph /  13km/h 12mph /  19.3km/h 68% 0in /  0.0mm 236 W/m2
11:39 48.7 °F /  9.3 °C 39 °F /  3.9 °C 30in /  1015.2hPa West 6.9mph /  11.1km/h 12mph /  19.3km/h 69% 0in /  0.0mm 860 W/m2
11:44 48.6 °F /  9.2 °C 38.5 °F /  3.6 °C 30in /  1015.2hPa West 6.9mph /  11.1km/h 16mph /  25.7km/h 68% 0in /  0.0mm 826 W/m2
11:49 49.3 °F /  9.6 °C 38.8 °F /  3.8 °C 30in /  1015.2hPa West 12.1mph /  19.5km/h 15mph /  24.1km/h 67% 0in /  0.0mm 912 W/m2
11:54 49.5 °F /  9.7 °C 37.4 °F /  3 °C 30in /  1015.2hPa NNW 10.1mph /  16.3km/h 11mph /  17.7km/h 63% 0in /  0.0mm 271 W/m2
11:59 49.3 °F /  9.6 °C 35.6 °F /  2 °C 30in /  1015.6hPa NW 8.9mph /  14.3km/h 15mph /  24.1km/h 59% 0in /  0.0mm 141 W/m2
12:04 49.3 °F /  9.6 °C 36.9 °F /  2.7 °C 30in /  1015.2hPa WSW 8.9mph /  14.3km/h 14mph /  22.5km/h 62% 0in /  0.0mm 916 W/m2
12:09 49.6 °F /  9.8 °C 37.2 °F /  2.9 °C 30in /  1015.6hPa West 8.1mph /  13km/h 14mph /  22.5km/h 62% 0in /  0.0mm 1020 W/m2
12:14 49.8 °F /  9.9 °C 37.4 °F /  3 °C 30in /  1015.6hPa West 6mph /  9.7km/h 13mph /  20.9km/h 62% 0in /  0.0mm 316 W/m2
12:19 50 °F /  10 °C 37.9 °F /  3.3 °C 30in /  1015.6hPa WSW 6.9mph /  11.1km/h 13mph /  20.9km/h 63% 0in /  0.0mm 387 W/m2
12:24 49.5 °F /  9.7 °C 37 °F /  2.8 °C 30in /  1015.9hPa West 10.1mph /  16.3km/h 12mph /  19.3km/h 62% 0in /  0.0mm 251 W/m2
12:29 49.5 °F /  9.7 °C 37.4 °F /  3 °C 30in /  1015.9hPa WSW 11mph /  17.7km/h 14mph /  22.5km/h 63% 0in /  0.0mm 888 W/m2
12:54 50.4 °F /  10.2 °C 38.7 °F /  3.7 °C 30in /  1016.3hPa West 8.1mph /  13km/h 14mph /  22.5km/h 64% 0in /  0.0mm 323 W/m2
12:59 50.5 °F /  10.3 °C 38.5 °F /  3.6 °C 30in /  1016.3hPa West 6mph /  9.7km/h 12mph /  19.3km/h 63% 0in /  0.0mm 323 W/m2
13:04 50.5 °F /  10.3 °C 39.2 °F /  4 °C 30in /  1016.3hPa NW 4.9mph /  7.9km/h 12mph /  19.3km/h 65% 0in /  0.0mm 459 W/m2
13:09 51.1 °F /  10.6 °C 38.8 °F /  3.8 °C 30in /  1016.3hPa WSW 4.9mph /  7.9km/h 16mph /  25.7km/h 63% 0in /  0.0mm 990 W/m2
13:14 51.4 °F /  10.8 °C 37.2 °F /  2.9 °C 30in /  1016.3hPa West 4mph /  6.4km/h 7mph /  11.3km/h 58% 0in /  0.0mm 977 W/m2
13:19 51.1 °F /  10.6 °C 36.3 °F /  2.4 °C 30in /  1016.3hPa West 6.9mph /  11.1km/h 13mph /  20.9km/h 57% 0in /  0.0mm 188 W/m2
13:24 51.4 °F /  10.8 °C 35.8 °F /  2.1 °C 30in /  1016.3hPa West 8.9mph /  14.3km/h 12mph /  19.3km/h 55% 0in /  0.0mm 1102 W/m2
13:29 51.3 °F /  10.7 °C 35.2 °F /  1.8 °C 30in /  1016.3hPa West 6mph /  9.7km/h 8mph /  12.9km/h 54% 0in /  0.0mm 371 W/m2
13:34 51.4 °F /  10.8 °C 36.7 °F /  2.6 °C 30in /  1016.3hPa WSW 10.1mph /  16.3km/h 12mph /  19.3km/h 57% 0in /  0.0mm 1037 W/m2
13:39 51.6 °F /  10.9 °C 36.9 °F /  2.7 °C 30in /  1016.3hPa West 6.9mph /  11.1km/h 8mph /  12.9km/h 57% 0in /  0.0mm 209 W/m2
13:51 52.9 °F /  11.6 °C 37.6 °F /  3.1 °C 30in /  1016.3hPa North 2.9mph /  4.7km/h 9mph /  14.5km/h 56% 0in /  0.0mm 993 W/m2
13:56 53.1 °F /  11.7 °C 37.8 °F /  3.2 °C 30in /  1016.3hPa West 2.9mph /  4.7km/h 10mph /  16.1km/h 56% 0in /  0.0mm 1078 W/m2
14:01 52.9 °F /  11.6 °C 37.6 °F /  3.1 °C 30in /  1016.3hPa NW 2.9mph /  4.7km/h 10mph /  16.1km/h 56% 0in /  0.0mm 991 W/m2
14:06 53.2 °F /  11.8 °C 37.4 °F /  3 °C 30in /  1016.3hPa West 2.9mph /  4.7km/h 7mph /  11.3km/h 55% 0in /  0.0mm 1092 W/m2
14:11 53.8 °F /  12.1 °C 36.5 °F /  2.5 °C 30in /  1016.6hPa NW 8.9mph /  14.3km/h 11mph /  17.7km/h 52% 0in /  0.0mm 1118 W/m2
14:16 53.2 °F /  11.8 °C 35.6 °F /  2 °C 30in /  1016.6hPa West 6.9mph /  11.1km/h 10mph /  16.1km/h 51% 0in /  0.0mm 1065 W/m2
14:21 53.2 °F /  11.8 °C 36.5 °F /  2.5 °C 30in /  1016.6hPa WSW 4.9mph /  7.9km/h 7mph /  11.3km/h 53% 0in /  0.0mm 1051 W/m2
14:26 53.4 °F /  11.9 °C 37.2 °F /  2.9 °C 30in /  1016.6hPa WSW 8.1mph /  13km/h 14mph /  22.5km/h 54% 0in /  0.0mm 1065 W/m2
14:31 53.8 °F /  12.1 °C 36.1 °F /  2.3 °C 30in /  1016.6hPa WSW 4.9mph /  7.9km/h 10mph /  16.1km/h 51% 0in /  0.0mm 1079 W/m2
14:36 53.8 °F /  12.1 °C 36.5 °F /  2.5 °C 30in /  1016.9hPa West 6.9mph /  11.1km/h 13mph /  20.9km/h 52% 0in /  0.0mm 265 W/m2
14:41 53.4 °F /  11.9 °C 36.7 °F /  2.6 °C 30in /  1016.9hPa North 8.9mph /  14.3km/h 12mph /  19.3km/h 53% 0in /  0.0mm 1034 W/m2
14:46 53.4 °F /  11.9 °C 36.7 °F /  2.6 °C 30in /  1016.9hPa WNW 4.9mph /  7.9km/h 13mph /  20.9km/h 53% 0in /  0.0mm 179 W/m2
14:51 53.2 °F /  11.8 °C 36.5 °F /  2.5 °C 30in /  1016.9hPa NW 8.1mph /  13km/h 9mph /  14.5km/h 53% 0in /  0.0mm 243 W/m2
14:56 53.6 °F /  12 °C 36.9 °F /  2.7 °C 30in /  1016.9hPa WNW 2.9mph /  4.7km/h 9mph /  14.5km/h 53% 0in /  0.0mm 1005 W/m2
15:01 54.1 °F /  12.3 °C 37.4 °F /  3 °C 30in /  1016.9hPa WSW 10.1mph /  16.3km/h 14mph /  22.5km/h 53% 0in /  0.0mm 954 W/m2
15:06 54.1 °F /  12.3 °C 36.9 °F /  2.7 °C 30in /  1016.9hPa SW 4.9mph /  7.9km/h 8mph /  12.9km/h 52% 0in /  0.0mm 1028 W/m2
15:11 54.3 °F /  12.4 °C 36.5 °F /  2.5 °C 30in /  1016.9hPa West 4mph /  6.4km/h 6mph /  9.7km/h 51% 0in /  0.0mm 1032 W/m2
15:16 54.1 °F /  12.3 °C 36 °F /  2.2 °C 30in /  1016.9hPa NW 2mph /  3.2km/h 11mph /  17.7km/h 50% 0in /  0.0mm 265 W/m2
15:21 54 °F /  12.2 °C 36.3 °F /  2.4 °C 30in /  1016.9hPa NW 2.9mph /  4.7km/h 10mph /  16.1km/h 51% 0in /  0.0mm 267 W/m2
15:26 53.8 °F /  12.1 °C 36.1 °F /  2.3 °C 30in /  1016.9hPa West 6mph /  9.7km/h 8mph /  12.9km/h 51% 0in /  0.0mm 265 W/m2
15:31 53.8 °F /  12.1 °C 35.6 °F /  2 °C 30in /  1016.9hPa West 2mph /  3.2km/h 10mph /  16.1km/h 50% 0in /  0.0mm 287 W/m2
15:36 54 °F /  12.2 °C 36.7 °F /  2.6 °C 30in /  1016.9hPa West 4mph /  6.4km/h 9mph /  14.5km/h 52% 0in /  0.0mm 188 W/m2
15:41 53.8 °F /  12.1 °C 35.6 °F /  2 °C 30in /  1017.3hPa North 2mph /  3.2km/h 5mph /  8km/h 50% 0in /  0.0mm 919 W/m2
15:46 54.1 °F /  12.3 °C 35.4 °F /  1.9 °C 30in /  1017.3hPa North 2mph /  3.2km/h 8mph /  12.9km/h 49% 0in /  0.0mm 947 W/m2
15:51 54.7 °F /  12.6 °C 36.9 °F /  2.7 °C 30in /  1017.3hPa West 2mph /  3.2km/h 6mph /  9.7km/h 51% 0in /  0.0mm 912 W/m2
15:56 55.4 °F /  13 °C 36.5 °F /  2.5 °C 30in /  1017.3hPa WNW 6mph /  9.7km/h 7mph /  11.3km/h 49% 0in /  0.0mm 872 W/m2
16:01 55.9 °F /  13.3 °C 36 °F /  2.2 °C 30in /  1017.3hPa NW 4.9mph /  7.9km/h 10mph /  16.1km/h 47% 0in /  0.0mm 874 W/m2
16:06 56.1 °F /  13.4 °C 35.6 °F /  2 °C 30in /  1016.9hPa West 4mph /  6.4km/h 11mph /  17.7km/h 46% 0in /  0.0mm 846 W/m2
16:11 55.8 °F /  13.2 °C 35.2 °F /  1.8 °C 30in /  1016.9hPa NW 2.9mph /  4.7km/h 10mph /  16.1km/h 46% 0in /  0.0mm 870 W/m2
16:16 55.9 °F /  13.3 °C 36 °F /  2.2 °C 30in /  1016.9hPa WNW 2.9mph /  4.7km/h 6mph /  9.7km/h 47% 0in /  0.0mm 570 W/m2
16:21 56.1 °F /  13.4 °C 35.1 °F /  1.7 °C 30in /  1017.3hPa West 6.9mph /  11.1km/h 8mph /  12.9km/h 45% 0in /  0.0mm 900 W/m2
16:26 56.5 °F /  13.6 °C 36.5 °F /  2.5 °C 30in /  1017.3hPa WNW 4mph /  6.4km/h 11mph /  17.7km/h 47% 0in /  0.0mm 830 W/m2
16:31 55.8 °F /  13.2 °C 35.2 °F /  1.8 °C 30in /  1017.3hPa West 6.9mph /  11.1km/h 13mph /  20.9km/h 46% 0in /  0.0mm 835 W/m2
16:36 55.2 °F /  12.9 °C 33.6 °F /  0.9 °C 30in /  1017.3hPa NNW 2.9mph /  4.7km/h 11mph /  17.7km/h 44% 0in /  0.0mm 121 W/m2
16:41 55 °F /  12.8 °C 34.2 °F /  1.2 °C 30in /  1017.3hPa WNW 8.1mph /  13km/h 8mph /  12.9km/h 45% 0in /  0.0mm 791 W/m2
16:46 55.8 °F /  13.2 °C 34.7 °F /  1.5 °C 30in /  1017.3hPa WNW 4mph /  6.4km/h 9mph /  14.5km/h 45% 0in /  0.0mm 768 W/m2
16:51 56.1 °F /  13.4 °C 35.1 °F /  1.7 °C 30in /  1017.3hPa West 6.9mph /  11.1km/h 9mph /  14.5km/h 45% 0in /  0.0mm 795 W/m2
16:56 56.3 °F /  13.5 °C 34.7 °F /  1.5 °C 30in /  1017.3hPa West 10.1mph /  16.3km/h 10mph /  16.1km/h 44% 0in /  0.0mm 798 W/m2
17:01 56.1 °F /  13.4 °C 34.5 °F /  1.4 °C 30in /  1017.3hPa WNW 6.9mph /  11.1km/h 8mph /  12.9km/h 44% 0in /  0.0mm 756 W/m2
17:06 56.1 °F /  13.4 °C 35.6 °F /  2 °C 30.1in /  1017.6hPa WNW 4mph /  6.4km/h 13mph /  20.9km/h 46% 0in /  0.0mm 693 W/m2
17:11 56.1 °F /  13.4 °C 35.6 °F /  2 °C 30.1in /  1017.6hPa WNW 4mph /  6.4km/h 9mph /  14.5km/h 46% 0in /  0.0mm 654 W/m2
17:16 55.9 °F /  13.3 °C 35.4 °F /  1.9 °C 30.1in /  1017.6hPa West 8.9mph /  14.3km/h 13mph /  20.9km/h 46% 0in /  0.0mm 640 W/m2
17:21 56.1 °F /  13.4 °C 34.5 °F /  1.4 °C 30.1in /  1017.6hPa West 0.9mph /  1.4km/h 8mph /  12.9km/h 44% 0in /  0.0mm 633 W/m2
17:27 56.5 °F /  13.6 °C 35.4 °F /  1.9 °C 30.1in /  1017.6hPa West 8.1mph /  13km/h 12mph /  19.3km/h 45% 0in /  0.0mm 640 W/m2
17:32 56.1 °F /  13.4 °C 35.1 °F /  1.7 °C 30.1in /  1017.6hPa WNW 4.9mph /  7.9km/h 10mph /  16.1km/h 45% 0in /  0.0mm 622 W/m2
17:37 55.9 °F /  13.3 °C 34.3 °F /  1.3 °C 30.1in /  1017.6hPa West 4mph /  6.4km/h 12mph /  19.3km/h 44% 0in /  0.0mm 104 W/m2
17:42 55.4 °F /  13 °C 34.9 °F /  1.6 °C 30.1in /  1017.6hPa West 6mph /  9.7km/h 8mph /  12.9km/h 46% 0in /  0.0mm 148 W/m2
17:47 55.4 °F /  13 °C 34.3 °F /  1.3 °C 30.1in /  1017.6hPa NW 2.9mph /  4.7km/h 5mph /  8km/h 45% 0in /  0.0mm 605 W/m2
17:52 56.1 °F /  13.4 °C 35.6 °F /  2 °C 30.1in /  1017.6hPa Calm   8mph /  12.9km/h 46% 0in /  0.0mm 596 W/m2
17:57 56.7 °F /  13.7 °C 35.1 °F /  1.7 °C 30.1in /  1017.6hPa WNW 4mph /  6.4km/h 9mph /  14.5km/h 44% 0in /  0.0mm 111 W/m2
18:02 55.9 °F /  13.3 °C 34.9 °F /  1.6 °C 30.1in /  1017.6hPa WSW 2.9mph /  4.7km/h 10mph /  16.1km/h 45% 0in /  0.0mm 113 W/m2
18:07 55 °F /  12.8 °C 34.7 °F /  1.5 °C 30.1in /  1017.6hPa WNW 4mph /  6.4km/h 7mph /  11.3km/h 46% 0in /  0.0mm 158 W/m2
18:12 55.2 °F /  12.9 °C 35.4 °F /  1.9 °C 30.1in /  1017.6hPa NW 2mph /  3.2km/h 10mph /  16.1km/h 47% 0in /  0.0mm 550 W/m2
18:17 55.6 °F /  13.1 °C 35.1 °F /  1.7 °C 30.1in /  1017.6hPa NNW 0.9mph /  1.4km/h 3mph /  4.8km/h 46% 0in /  0.0mm 313 W/m2
18:22 56.1 °F /  13.4 °C 36.7 °F /  2.6 °C 30.1in /  1017.6hPa West 2mph /  3.2km/h 7mph /  11.3km/h 48% 0in /  0.0mm 497 W/m2
18:27 56.5 °F /  13.6 °C 34.9 °F /  1.6 °C 30.1in /  1017.6hPa WNW 4mph /  6.4km/h 8mph /  12.9km/h 44% 0in /  0.0mm 125 W/m2
18:32 55.6 °F /  13.1 °C 34 °F /  1.1 °C 30.1in /  1017.6hPa NW 2.9mph /  4.7km/h 8mph /  12.9km/h 44% 0in /  0.0mm 139 W/m2
18:37 55 °F /  12.8 °C 34.7 °F /  1.5 °C 30.1in /  1018.0hPa West 8.9mph /  14.3km/h 9mph /  14.5km/h 46% 0in /  0.0mm 98 W/m2
18:42 55 °F /  12.8 °C 34.7 °F /  1.5 °C 30.1in /  1017.6hPa WSW 4.9mph /  7.9km/h 8mph /  12.9km/h 46% 0in /  0.0mm 378 W/m2
18:47 55.8 °F /  13.2 °C 35.2 °F /  1.8 °C 30.1in /  1017.6hPa WNW 6.9mph /  11.1km/h 8mph /  12.9km/h 46% 0in /  0.0mm 346 W/m2
18:52 55.8 °F /  13.2 °C 35.2 °F /  1.8 °C 30.1in /  1017.6hPa WSW 2mph /  3.2km/h 5mph /  8km/h 46% 0in /  0.0mm 76 W/m2
18:57 55.8 °F /  13.2 °C 34.7 °F /  1.5 °C 30.1in /  1017.6hPa WNW 4mph /  6.4km/h 7mph /  11.3km/h 45% 0in /  0.0mm 283 W/m2
19:02 55.6 °F /  13.1 °C 34.5 °F /  1.4 °C 30.1in /  1017.6hPa NW 2.9mph /  4.7km/h 7mph /  11.3km/h 45% 0in /  0.0mm 269 W/m2
19:07 55.8 °F /  13.2 °C 34.7 °F /  1.5 °C 30.1in /  1018.0hPa NW 4.9mph /  7.9km/h 5mph /  8km/h 45% 0in /  0.0mm 260 W/m2
19:12 55.8 °F /  13.2 °C 35.2 °F /  1.8 °C 30.1in /  1018.0hPa NW 4mph /  6.4km/h 8mph /  12.9km/h 46% 0in /  0.0mm 84 W/m2
19:17 55.2 °F /  12.9 °C 35.4 °F /  1.9 °C 30.1in /  1017.6hPa WSW 4mph /  6.4km/h 7mph /  11.3km/h 47% 0in /  0.0mm 63 W/m2
19:22 54.5 °F /  12.5 °C 35.2 °F /  1.8 °C 30.1in /  1017.6hPa NW 4mph /  6.4km/h 9mph /  14.5km/h 48% 0in /  0.0mm 60 W/m2
19:27 54.1 °F /  12.3 °C 36 °F /  2.2 °C 30.1in /  1018.0hPa WNW 2mph /  3.2km/h 7mph /  11.3km/h 50% 0in /  0.0mm 60 W/m2
19:32 54.1 °F /  12.3 °C 36 °F /  2.2 °C 30.1in /  1018.0hPa WSW 4mph /  6.4km/h 9mph /  14.5km/h 50% 0in /  0.0mm 202 W/m2
19:37 54.5 °F /  12.5 °C 36.7 °F /  2.6 °C 30.1in /  1018.0hPa West 0.9mph /  1.4km/h 3mph /  4.8km/h 51% 0in /  0.0mm 105 W/m2
19:42 54.7 °F /  12.6 °C 36.3 °F /  2.4 °C 30.1in /  1018.0hPa WNW 2mph /  3.2km/h 3mph /  4.8km/h 50% 0in /  0.0mm 76 W/m2
19:47 54.5 °F /  12.5 °C 37.2 °F /  2.9 °C 30.1in /  1018.0hPa WNW 2mph /  3.2km/h 4mph /  6.4km/h 52% 0in /  0.0mm 183 W/m2
19:52 54.7 °F /  12.6 °C 36 °F /  2.2 °C 30.1in /  1018.0hPa WNW 2mph /  3.2km/h 4mph /  6.4km/h 49% 0in /  0.0mm 156 W/m2
19:57 54.9 °F /  12.7 °C 36.5 °F /  2.5 °C 30.1in /  1018.0hPa NW 2mph /  3.2km/h 3mph /  4.8km/h 50% 0in /  0.0mm 109 W/m2
20:02 54.9 °F /  12.7 °C 36.5 °F /  2.5 °C 30.1in /  1018.0hPa WNW 0.9mph /  1.4km/h 3mph /  4.8km/h 50% 0in /  0.0mm 93 W/m2
20:07 55 °F /  12.8 °C 37.2 °F /  2.9 °C 30.1in /  1018.0hPa Calm   2mph /  3.2km/h 51% 0in /  0.0mm 74 W/m2
20:12 55 °F /  12.8 °C 36.1 °F /  2.3 °C 30.1in /  1018.0hPa West 0.9mph /  1.4km/h 2mph /  3.2km/h 49% 0in /  0.0mm 70 W/m2
20:17 55 °F /  12.8 °C 37.2 °F /  2.9 °C 30.1in /  1018.0hPa West 0.9mph /  1.4km/h 2mph /  3.2km/h 51% 0in /  0.0mm 67 W/m2
20:22 54.5 °F /  12.5 °C 36.3 °F /  2.4 °C 30.1in /  1018.0hPa SW 4mph /  6.4km/h 4mph /  6.4km/h 50% 0in /  0.0mm 39 W/m2
20:27 53.8 °F /  12.1 °C 36.1 °F /  2.3 °C 30.1in /  1018.3hPa West 2mph /  3.2km/h 4mph /  6.4km/h 51% 0in /  0.0mm 23 W/m2
20:32 53.2 °F /  11.8 °C 35.6 °F /  2 °C 30.1in /  1018.3hPa WSW 2.9mph /  4.7km/h 5mph /  8km/h 51% 0in /  0.0mm 16 W/m2
20:37 52.7 °F /  11.5 °C 35.6 °F /  2 °C 30.1in /  1018.3hPa WSW 0.9mph /  1.4km/h 4mph /  6.4km/h 52% 0in /  0.0mm 16 W/m2
20:42 52.3 °F /  11.3 °C 35.8 °F /  2.1 °C 30.1in /  1018.3hPa West 0.9mph /  1.4km/h 1mph /  1.6km/h 53% 0in /  0.0mm 14 W/m2
20:47 52 °F /  11.1 °C 35.8 °F /  2.1 °C 30.1in /  1018.3hPa WSW 0.9mph /  1.4km/h 3mph /  4.8km/h 54% 0in /  0.0mm 11 W/m2
20:52 51.4 °F /  10.8 °C 36.3 °F /  2.4 °C 30.1in /  1018.3hPa WSW 2mph /  3.2km/h 2mph /  3.2km/h 56% 0in /  0.0mm 7 W/m2
20:57 51.1 °F /  10.6 °C 36.3 °F /  2.4 °C 30.1in /  1018.3hPa WSW 2mph /  3.2km/h 2mph /  3.2km/h 57% 0in /  0.0mm 5 W/m2
21:02 50.5 °F /  10.3 °C 36 °F /  2.2 °C 30.1in /  1018.3hPa Calm   2mph /  3.2km/h 57% 0in /  0.0mm 0 W/m2
21:07 50.2 °F /  10.1 °C 36 °F /  2.2 °C 30.1in /  1018.3hPa WSW 0.9mph /  1.4km/h 3mph /  4.8km/h 58% 0in /  0.0mm 0 W/m2
21:12 49.8 °F /  9.9 °C 35.6 °F /  2 °C 30.1in /  1018.3hPa SW 0.9mph /  1.4km/h 3mph /  4.8km/h 58% 0in /  0.0mm 0 W/m2
21:17 49.6 °F /  9.8 °C 35.1 °F /  1.7 °C 30.1in /  1018.3hPa West 2mph /  3.2km/h 3mph /  4.8km/h 57% 0in /  0.0mm 0 W/m2
21:22 49.5 °F /  9.7 °C 35.2 °F /  1.8 °C 30.1in /  1018.6hPa West 4mph /  6.4km/h 4mph /  6.4km/h 58% 0in /  0.0mm 0 W/m2
21:27 49.5 °F /  9.7 °C 35.2 °F /  1.8 °C 30.1in /  1018.6hPa West 0.9mph /  1.4km/h 2mph /  3.2km/h 58% 0in /  0.0mm 0 W/m2
21:32 49.5 °F /  9.7 °C 36.5 °F /  2.5 °C 30.1in /  1018.6hPa West 0.9mph /  1.4km/h 4mph /  6.4km/h 61% 0in /  0.0mm 0 W/m2
21:37 48.9 °F /  9.4 °C 36.9 °F /  2.7 °C 30.1in /  1018.6hPa Calm     63% 0in /  0.0mm 0 W/m2
21:42 48.7 °F /  9.3 °C 37 °F /  2.8 °C 30.1in /  1018.6hPa Calm   1mph /  1.6km/h 64% 0in /  0.0mm 0 W/m2
21:47 48.2 °F /  9 °C 37.4 °F /  3 °C 30.1in /  1018.6hPa Calm   2mph /  3.2km/h 66% 0in /  0.0mm 0 W/m2
21:52 47.7 °F /  8.7 °C 37.2 °F /  2.9 °C 30.1in /  1018.3hPa Calm   1mph /  1.6km/h 67% 0in /  0.0mm 0 W/m2
21:57 47.1 °F /  8.4 °C 37 °F /  2.8 °C 30.1in /  1018.6hPa Calm     68% 0in /  0.0mm 0 W/m2
22:02 46.6 °F /  8.1 °C 37 °F /  2.8 °C 30.1in /  1018.3hPa Calm     69% 0in /  0.0mm 0 W/m2
22:07 46.2 °F /  7.9 °C 37 °F /  2.8 °C 30.1in /  1018.6hPa Calm     70% 0in /  0.0mm 0 W/m2
22:12 45.9 °F /  7.7 °C 37 °F /  2.8 °C 30.1in /  1018.6hPa Calm     71% 0in /  0.0mm 0 W/m2
22:17 45.3 °F /  7.4 °C 36.5 °F /  2.5 °C 30.1in /  1018.6hPa Calm     71% 0in /  0.0mm 0 W/m2
22:22 45 °F /  7.2 °C 36.5 °F /  2.5 °C 30.1in /  1018.6hPa Calm     72% 0in /  0.0mm 0 W/m2
22:27 44.8 °F /  7.1 °C 36.3 °F /  2.4 °C 30.1in /  1018.3hPa Calm     72% 0in /  0.0mm 0 W/m2
22:32 44.4 °F /  6.9 °C 36 °F /  2.2 °C 30.1in /  1018.6hPa Calm     72% 0in /  0.0mm 0 W/m2
22:37 44.2 °F /  6.8 °C 35.8 °F /  2.1 °C 30.1in /  1018.6hPa Calm     72% 0in /  0.0mm 0 W/m2
22:42 44.1 °F /  6.7 °C 36 °F /  2.2 °C 30.1in /  1018.6hPa Calm     73% 0in /  0.0mm 0 W/m2
22:47 44.1 °F /  6.7 °C 36 °F /  2.2 °C 30.1in /  1018.6hPa Calm     73% 0in /  0.0mm 0 W/m2
22:52 43.9 °F /  6.6 °C 36.1 °F /  2.3 °C 30.1in /  1018.6hPa Calm     74% 0in /  0.0mm 0 W/m2
22:57 43.7 °F /  6.5 °C 36.3 °F /  2.4 °C 30.1in /  1018.6hPa Calm     75% 0in /  0.0mm 0 W/m2
23:02 43.5 °F /  6.4 °C 36.5 °F /  2.5 °C 30.1in /  1019.0hPa West 0.9mph /  1.4km/h 1mph /  1.6km/h 76% 0in /  0.0mm 0 W/m2
23:07 43.7 °F /  6.5 °C 36.7 °F /  2.6 °C 30.1in /  1018.6hPa Calm     76% 0in /  0.0mm 0 W/m2
23:12 43.5 °F /  6.4 °C 36.5 °F /  2.5 °C 30.1in /  1018.6hPa Calm     76% 0in /  0.0mm 0 W/m2
23:17 43.3 °F /  6.3 °C 36.3 °F /  2.4 °C 30.1in /  1018.6hPa Calm     76% 0in /  0.0mm 0 W/m2
23:22 43.3 °F /  6.3 °C 36.7 °F /  2.6 °C 30.1in /  1018.6hPa Calm     77% 0in /  0.0mm 0 W/m2
23:27 43.2 °F /  6.2 °C 36.7 °F /  2.6 °C 30.1in /  1018.6hPa Calm     78% 0in /  0.0mm 0 W/m2
23:32 43 °F /  6.1 °C 36.7 °F /  2.6 °C 30.1in /  1018.6hPa Calm     78% 0in /  0.0mm 0 W/m2
23:37 42.6 °F /  5.9 °C 36.5 °F /  2.5 °C 30.1in /  1018.6hPa Calm     79% 0in /  0.0mm 0 W/m2
23:42 42.4 °F /  5.8 °C 36.1 °F /  2.3 °C 30.1in /  1018.6hPa Calm     78% 0in /  0.0mm 0 W/m2
23:47 42.3 °F /  5.7 °C 36.1 °F /  2.3 °C 30.1in /  1018.6hPa Calm     79% 0in /  0.0mm 0 W/m2
23:52 42.1 °F /  5.6 °C 36 °F /  2.2 °C 30.1in /  1018.6hPa Calm     79% 0in /  0.0mm 0 W/m2
23:57 41.9 °F /  5.5 °C 35.8 °F /  2.1 °C 30.1in /  1018.6hPa Calm     79% 0in /  0.0mm 0 W/m2
Juneau County Weather
Compliments of Weather Underground - 2 mb